Terminal Aerodrome Forecast
Issued by NWS

Home | Current Version | Previous Version | Graphics & Text | Print | Product List | Glossary On
Versions: 1 2 3 4 5 6 7 8 9 10 11 12 13 14 15
000
FTUS43 KBIS 162321
TAFMOT
TAF
KMOT 162321Z 1700/1724 25015KT P6SM FEW100 SCT250
     FM171000 28010KT P6SM SCT025 BKN060
     FM171600 28014G20KT P6SM SCT060
     FM172200 27010KT P6SM SCT200=

USA.gov is the U.S. government's official web portal to all federal, state and local government web resources and services.